NFFN/NAN METAR and TAF weather

Enter ICAO airport designator
Station Type Date Time Source
NFFN METAR 2022/01/26 20:00 UTC NOAA

NFFN 262000Z VRB02KT 9999 FEW028 SCT120 BKN300 27/24 Q1008 NOSIG


Station Type Date Time Source
NFFN Decoded METAR 2022/01/26 20:00 UTC NOAA

Nandi, Fiji (NFFN) 17-45S 177-27E 18M
Jan 26, 2022 - 03:00 PM EST / 2022.01.26 2000 UTC
Wind: Variable at 2 MPH (2 KT):0
Visibility: greater than 7 mile(s):0
Sky conditions: mostly cloudy
Temperature: 80 F (27 C)
Dew Point: 75 F (24 C)
Relative Humidity: 83%
Pressure (altimeter): 29.77 in. Hg (1008 hPa)
ob: NFFN 262000Z VRB02KT 9999 FEW028 SCT120 BKN300 27/24 Q1008 NOSIG
cycle: 20

Station Type Date Time Source
NFFN TAF 2022/01/26 18:09 UTC NOAA

TAF NFFN 261706Z 2618/2718 06008KT 9999 FEW028 SCT048
BECMG 2622/2624 32010KT PROB40
TEMPO 2700/2709 5000 TSRA BKN015 FEW018CB
FM270700 07008KT 9999 -SHRA FEW025 SCT045
TEMPO 2712/2718 5000 TSRA BKN012 SCT017CB

Example: see airport list